sensor_id;sensor_type;location;lat;lon;timestamp;temperature;humidity
20891;DHT22;10605;52.968;8.844;2023-03-23T00:02:27;10.80;99.90
20891;DHT22;10605;52.968;8.844;2023-03-23T00:04:53;10.90;99.90
20891;DHT22;10605;52.968;8.844;2023-03-23T00:07:20;10.80;99.90
20891;DHT22;10605;52.968;8.844;2023-03-23T00:09:49;10.80;99.90
20891;DHT22;10605;52.968;8.844;2023-03-23T00:12:23;10.80;99.90
20891;DHT22;10605;52.968;8.844;2023-03-23T00:15:03;10.80;99.90
20891;DHT22;10605;52.968;8.844;2023-03-23T00:17:29;10.80;99.90
20891;DHT22;10605;52.968;8.844;2023-03-23T00:19:55;10.80;99.90
20891;DHT22;10605;52.968;8.844;2023-03-23T00:22:22;10.80;99.90
20891;DHT22;10605;52.968;8.844;2023-03-23T00:24:50;10.80;99.90
20891;DHT22;10605;52.968;8.844;2023-03-23T00:27:17;10.80;99.90
20891;DHT22;10605;52.968;8.844;2023-03-23T00:29:43;10.80;99.90
20891;DHT22;10605;52.968;8.844;2023-03-23T00:32:11;10.80;99.90
20891;DHT22;10605;52.968;8.844;2023-03-23T00:34:38;10.80;99.90
20891;DHT22;10605;52.968;8.844;2023-03-23T00:37:05;10.80;99.90
20891;DHT22;10605;52.968;8.844;2023-03-23T00:39:31;10.80;99.90
20891;DHT22;10605;52.968;8.844;2023-03-23T00:41:57;10.80;99.90
20891;DHT22;10605;52.968;8.844;2023-03-23T00:44:30;10.80;99.90
20891;DHT22;10605;52.968;8.844;2023-03-23T00:46:57;10.80;99.90
20891;DHT22;10605;52.968;8.844;2023-03-23T00:49:24;10.80;99.90
20891;DHT22;10605;52.968;8.844;2023-03-23T00:51:55;10.80;99.90
20891;DHT22;10605;52.968;8.844;2023-03-23T00:54:21;10.90;99.90
20891;DHT22;10605;52.968;8.844;2023-03-23T00:56:47;10.80;99.90
20891;DHT22;10605;52.968;8.844;2023-03-23T00:59:14;10.90;99.90
20891;DHT22;10605;52.968;8.844;2023-03-23T01:01:39;10.90;99.90
20891;DHT22;10605;52.968;8.844;2023-03-23T01:04:06;10.90;99.90
20891;DHT22;10605;52.968;8.844;2023-03-23T01:06:34;10.90;99.90
20891;DHT22;10605;52.968;8.844;2023-03-23T01:09:11;10.90;99.90
20891;DHT22;10605;52.968;8.844;2023-03-23T01:11:40;10.90;99.90
20891;DHT22;10605;52.968;8.844;2023-03-23T01:14:06;10.90;99.90
20891;DHT22;10605;52.968;8.844;2023-03-23T01:16:32;10.90;99.90
20891;DHT22;10605;52.968;8.844;2023-03-23T01:18:58;10.90;99.90
20891;DHT22;10605;52.968;8.844;2023-03-23T01:21:23;10.90;99.90
20891;DHT22;10605;52.968;8.844;2023-03-23T01:23:50;10.90;99.90
20891;DHT22;10605;52.968;8.844;2023-03-23T01:26:21;10.90;99.90
20891;DHT22;10605;52.968;8.844;2023-03-23T01:28:48;10.90;99.90
20891;DHT22;10605;52.968;8.844;2023-03-23T01:31:19;10.90;99.90
20891;DHT22;10605;52.968;8.844;2023-03-23T01:33:46;10.90;99.90
20891;DHT22;10605;52.968;8.844;2023-03-23T01:36:21;10.90;99.90
20891;DHT22;10605;52.968;8.844;2023-03-23T01:38:48;10.90;99.90
20891;DHT22;10605;52.968;8.844;2023-03-23T01:41:16;10.90;99.90
20891;DHT22;10605;52.968;8.844;2023-03-23T01:43:55;10.90;99.90
20891;DHT22;10605;52.968;8.844;2023-03-23T01:46:21;10.90;99.90
20891;DHT22;10605;52.968;8.844;2023-03-23T01:48:50;10.90;99.90
20891;DHT22;10605;52.968;8.844;2023-03-23T01:51:17;10.90;99.90
20891;DHT22;10605;52.968;8.844;2023-03-23T01:53:50;10.90;99.90
20891;DHT22;10605;52.968;8.844;2023-03-23T01:56:19;10.90;99.90
20891;DHT22;10605;52.968;8.844;2023-03-23T01:58:46;11.00;99.90
20891;DHT22;10605;52.968;8.844;2023-03-23T02:01:13;10.90;99.90
20891;DHT22;10605;52.968;8.844;2023-03-23T02:03:43;10.90;99.90
20891;DHT22;10605;52.968;8.844;2023-03-23T02:06:09;10.90;99.90
20891;DHT22;10605;52.968;8.844;2023-03-23T02:08:35;10.90;99.90
20891;DHT22;10605;52.968;8.844;2023-03-23T02:11:12;10.90;99.90
20891;DHT22;10605;52.968;8.844;2023-03-23T02:13:39;10.90;99.90
20891;DHT22;10605;52.968;8.844;2023-03-23T02:16:43;11.00;99.90
20891;DHT22;10605;52.968;8.844;2023-03-23T02:19:20;11.00;99.90
20891;DHT22;10605;52.968;8.844;2023-03-23T02:30:47;11.00;99.90
20891;DHT22;10605;52.968;8.844;2023-03-23T02:36:12;11.00;99.90
20891;DHT22;10605;52.968;8.844;2023-03-23T02:41:57;11.00;99.90
20891;DHT22;10605;52.968;8.844;2023-03-23T02:44:25;11.00;99.90
20891;DHT22;10605;52.968;8.844;2023-03-23T02:46:56;11.00;99.90
20891;DHT22;10605;52.968;8.844;2023-03-23T02:49:24;11.00;99.90
20891;DHT22;10605;52.968;8.844;2023-03-23T02:51:51;11.00;99.90
20891;DHT22;10605;52.968;8.844;2023-03-23T02:54:19;11.00;99.90
20891;DHT22;10605;52.968;8.844;2023-03-23T02:56:48;11.00;99.90
20891;DHT22;10605;52.968;8.844;2023-03-23T02:59:16;11.00;99.90
20891;DHT22;10605;52.968;8.844;2023-03-23T03:04:19;11.00;99.90
20891;DHT22;10605;52.968;8.844;2023-03-23T03:10:15;11.00;99.90
20891;DHT22;10605;52.968;8.844;2023-03-23T03:12:29;11.00;99.90
20891;DHT22;10605;52.968;8.844;2023-03-23T03:15:26;11.00;99.90
20891;DHT22;10605;52.968;8.844;2023-03-23T03:18:03;11.00;99.90
20891;DHT22;10605;52.968;8.844;2023-03-23T03:20:32;11.00;99.90
20891;DHT22;10605;52.968;8.844;2023-03-23T03:23:02;11.00;99.90
20891;DHT22;10605;52.968;8.844;2023-03-23T03:25:28;11.00;99.90
20891;DHT22;10605;52.968;8.844;2023-03-23T03:27:55;11.00;99.90
20891;DHT22;10605;52.968;8.844;2023-03-23T03:30:26;11.10;99.90
20891;DHT22;10605;52.968;8.844;2023-03-23T03:32:54;11.00;99.90
20891;DHT22;10605;52.968;8.844;2023-03-23T03:35:23;11.00;99.90
20891;DHT22;10605;52.968;8.844;2023-03-23T03:37:50;11.00;99.90
20891;DHT22;10605;52.968;8.844;2023-03-23T03:40:19;11.00;99.90
20891;DHT22;10605;52.968;8.844;2023-03-23T03:42:45;11.00;99.90
20891;DHT22;10605;52.968;8.844;2023-03-23T03:45:19;11.00;99.90
20891;DHT22;10605;52.968;8.844;2023-03-23T03:47:45;11.00;99.90
20891;DHT22;10605;52.968;8.844;2023-03-23T03:50:11;11.00;99.90
20891;DHT22;10605;52.968;8.844;2023-03-23T03:52:38;11.00;99.90
20891;DHT22;10605;52.968;8.844;2023-03-23T03:55:06;11.00;99.90
20891;DHT22;10605;52.968;8.844;2023-03-23T03:57:32;11.00;99.90
20891;DHT22;10605;52.968;8.844;2023-03-23T03:59:58;11.10;99.90
20891;DHT22;10605;52.968;8.844;2023-03-23T04:02:24;11.10;99.90
20891;DHT22;10605;52.968;8.844;2023-03-23T04:04:50;11.10;99.90
20891;DHT22;10605;52.968;8.844;2023-03-23T04:07:18;11.10;99.90
20891;DHT22;10605;52.968;8.844;2023-03-23T04:09:45;11.10;99.90
20891;DHT22;10605;52.968;8.844;2023-03-23T04:12:14;11.00;99.90
20891;DHT22;10605;52.968;8.844;2023-03-23T04:14:40;11.10;99.90
20891;DHT22;10605;52.968;8.844;2023-03-23T04:17:06;11.00;99.90
20891;DHT22;10605;52.968;8.844;2023-03-23T04:19:34;11.00;99.90
20891;DHT22;10605;52.968;8.844;2023-03-23T04:22:03;11.00;99.90
20891;DHT22;10605;52.968;8.844;2023-03-23T04:24:29;11.10;99.90
20891;DHT22;10605;52.968;8.844;2023-03-23T04:26:59;11.10;99.90
20891;DHT22;10605;52.968;8.844;2023-03-23T04:29:24;11.10;99.90
20891;DHT22;10605;52.968;8.844;2023-03-23T04:31:50;11.00;99.90
20891;DHT22;10605;52.968;8.844;2023-03-23T04:34:18;11.10;99.90
20891;DHT22;10605;52.968;8.844;2023-03-23T04:36:44;11.10;99.90
20891;DHT22;10605;52.968;8.844;2023-03-23T04:39:12;11.10;99.90
20891;DHT22;10605;52.968;8.844;2023-03-23T04:41:39;11.10;99.90
20891;DHT22;10605;52.968;8.844;2023-03-23T04:44:06;11.10;99.90
20891;DHT22;10605;52.968;8.844;2023-03-23T04:46:32;11.10;99.90
20891;DHT22;10605;52.968;8.844;2023-03-23T04:48:59;11.20;99.90
20891;DHT22;10605;52.968;8.844;2023-03-23T04:51:33;11.10;99.90
20891;DHT22;10605;52.968;8.844;2023-03-23T04:54:01;11.20;99.90
20891;DHT22;10605;52.968;8.844;2023-03-23T04:56:27;11.20;99.90
20891;DHT22;10605;52.968;8.844;2023-03-23T04:58:52;11.10;99.90
20891;DHT22;10605;52.968;8.844;2023-03-23T05:01:18;11.20;99.90
20891;DHT22;10605;52.968;8.844;2023-03-23T05:03:44;11.20;99.90
20891;DHT22;10605;52.968;8.844;2023-03-23T05:06:10;11.10;99.90
20891;DHT22;10605;52.968;8.844;2023-03-23T05:08:36;11.20;99.90
20891;DHT22;10605;52.968;8.844;2023-03-23T05:11:04;11.20;99.90
20891;DHT22;10605;52.968;8.844;2023-03-23T05:13:31;11.20;99.90
20891;DHT22;10605;52.968;8.844;2023-03-23T05:15:57;11.20;99.90
20891;DHT22;10605;52.968;8.844;2023-03-23T05:18:22;11.20;99.90
20891;DHT22;10605;52.968;8.844;2023-03-23T05:20:49;11.30;99.90
20891;DHT22;10605;52.968;8.844;2023-03-23T05:23:18;11.30;99.90
20891;DHT22;10605;52.968;8.844;2023-03-23T05:25:53;11.40;99.90
20891;DHT22;10605;52.968;8.844;2023-03-23T05:28:19;11.40;99.90
20891;DHT22;10605;52.968;8.844;2023-03-23T05:30:47;11.40;99.90
20891;DHT22;10605;52.968;8.844;2023-03-23T05:33:13;11.40;99.90
20891;DHT22;10605;52.968;8.844;2023-03-23T05:35:39;11.40;99.90
20891;DHT22;10605;52.968;8.844;2023-03-23T05:38:05;11.40;99.90
20891;DHT22;10605;52.968;8.844;2023-03-23T05:40:30;11.40;99.90
20891;DHT22;10605;52.968;8.844;2023-03-23T05:42:56;11.40;99.90
20891;DHT22;10605;52.968;8.844;2023-03-23T05:45:24;11.50;99.90
20891;DHT22;10605;52.968;8.844;2023-03-23T05:47:51;11.40;99.90
20891;DHT22;10605;52.968;8.844;2023-03-23T05:50:18;11.50;99.90
20891;DHT22;10605;52.968;8.844;2023-03-23T05:52:44;11.50;99.90
20891;DHT22;10605;52.968;8.844;2023-03-23T05:55:10;11.50;99.90
20891;DHT22;10605;52.968;8.844;2023-03-23T05:57:36;11.50;99.90
20891;DHT22;10605;52.968;8.844;2023-03-23T06:00:02;11.50;99.90
20891;DHT22;10605;52.968;8.844;2023-03-23T06:02:49;11.50;99.90
20891;DHT22;10605;52.968;8.844;2023-03-23T06:05:16;11.50;99.90
20891;DHT22;10605;52.968;8.844;2023-03-23T06:07:43;11.50;99.90
20891;DHT22;10605;52.968;8.844;2023-03-23T06:10:09;11.60;99.90
20891;DHT22;10605;52.968;8.844;2023-03-23T06:12:36;11.50;99.90
20891;DHT22;10605;52.968;8.844;2023-03-23T06:15:02;11.60;99.90
20891;DHT22;10605;52.968;8.844;2023-03-23T06:17:30;11.60;99.90
20891;DHT22;10605;52.968;8.844;2023-03-23T06:19:56;11.50;99.90
20891;DHT22;10605;52.968;8.844;2023-03-23T06:22:21;11.60;99.90
20891;DHT22;10605;52.968;8.844;2023-03-23T06:24:47;11.70;99.90
20891;DHT22;10605;52.968;8.844;2023-03-23T06:27:14;11.70;99.90
20891;DHT22;10605;52.968;8.844;2023-03-23T06:29:41;11.70;99.90
20891;DHT22;10605;52.968;8.844;2023-03-23T06:32:07;11.80;99.90
20891;DHT22;10605;52.968;8.844;2023-03-23T06:34:33;12.00;99.90
20891;DHT22;10605;52.968;8.844;2023-03-23T06:36:58;12.30;99.90
20891;DHT22;10605;52.968;8.844;2023-03-23T06:39:24;12.40;99.90
20891;DHT22;10605;52.968;8.844;2023-03-23T06:41:50;12.50;99.90
20891;DHT22;10605;52.968;8.844;2023-03-23T06:44:16;12.60;99.90
20891;DHT22;10605;52.968;8.844;2023-03-23T06:46:42;12.70;99.90
20891;DHT22;10605;52.968;8.844;2023-03-23T06:49:08;12.80;99.90
20891;DHT22;10605;52.968;8.844;2023-03-23T06:51:35;12.80;99.90
20891;DHT22;10605;52.968;8.844;2023-03-23T06:54:02;12.80;99.90
20891;DHT22;10605;52.968;8.844;2023-03-23T06:56:28;12.80;99.90
20891;DHT22;10605;52.968;8.844;2023-03-23T06:58:53;12.80;99.90
20891;DHT22;10605;52.968;8.844;2023-03-23T07:01:19;12.60;99.90
20891;DHT22;10605;52.968;8.844;2023-03-23T07:03:45;12.40;99.90
20891;DHT22;10605;52.968;8.844;2023-03-23T07:06:11;12.40;99.90
20891;DHT22;10605;52.968;8.844;2023-03-23T07:08:37;12.40;99.90
20891;DHT22;10605;52.968;8.844;2023-03-23T07:11:03;12.50;99.90
20891;DHT22;10605;52.968;8.844;2023-03-23T07:14:00;13.90;99.90
20891;DHT22;10605;52.968;8.844;2023-03-23T07:16:25;15.50;99.90
20891;DHT22;10605;52.968;8.844;2023-03-23T07:18:51;16.50;99.90
20891;DHT22;10605;52.968;8.844;2023-03-23T07:21:17;17.30;99.90
20891;DHT22;10605;52.968;8.844;2023-03-23T07:23:43;17.70;99.90
20891;DHT22;10605;52.968;8.844;2023-03-23T07:26:08;17.60;99.90
20891;DHT22;10605;52.968;8.844;2023-03-23T07:28:34;16.60;99.90
20891;DHT22;10605;52.968;8.844;2023-03-23T07:31:00;15.70;99.90
20891;DHT22;10605;52.968;8.844;2023-03-23T07:33:26;14.80;99.90
20891;DHT22;10605;52.968;8.844;2023-03-23T07:35:52;14.40;99.90
20891;DHT22;10605;52.968;8.844;2023-03-23T07:38:18;13.80;99.90
20891;DHT22;10605;52.968;8.844;2023-03-23T07:40:43;13.20;99.90
20891;DHT22;10605;52.968;8.844;2023-03-23T07:43:10;12.80;99.90
20891;DHT22;10605;52.968;8.844;2023-03-23T07:45:36;12.50;99.90
20891;DHT22;10605;52.968;8.844;2023-03-23T07:48:02;12.30;99.90
20891;DHT22;10605;52.968;8.844;2023-03-23T07:50:28;12.30;99.90
20891;DHT22;10605;52.968;8.844;2023-03-23T07:52:55;12.20;99.90
20891;DHT22;10605;52.968;8.844;2023-03-23T07:55:21;12.10;99.90
20891;DHT22;10605;52.968;8.844;2023-03-23T07:57:47;11.90;99.90
20891;DHT22;10605;52.968;8.844;2023-03-23T08:00:15;11.80;99.90
20891;DHT22;10605;52.968;8.844;2023-03-23T08:02:44;11.60;99.90
20891;DHT22;10605;52.968;8.844;2023-03-23T08:05:10;11.50;99.90
20891;DHT22;10605;52.968;8.844;2023-03-23T08:07:38;11.60;99.90
20891;DHT22;10605;52.968;8.844;2023-03-23T08:10:06;11.60;99.90
20891;DHT22;10605;52.968;8.844;2023-03-23T08:12:35;11.60;99.90
20891;DHT22;10605;52.968;8.844;2023-03-23T08:15:01;11.40;99.90
20891;DHT22;10605;52.968;8.844;2023-03-23T08:17:26;11.40;99.90
20891;DHT22;10605;52.968;8.844;2023-03-23T08:19:52;11.40;99.90
20891;DHT22;10605;52.968;8.844;2023-03-23T08:22:18;11.30;99.90
20891;DHT22;10605;52.968;8.844;2023-03-23T08:24:43;11.20;99.90
20891;DHT22;10605;52.968;8.844;2023-03-23T08:27:09;11.20;99.90
20891;DHT22;10605;52.968;8.844;2023-03-23T08:29:35;11.30;99.90
20891;DHT22;10605;52.968;8.844;2023-03-23T08:32:01;11.30;99.90
20891;DHT22;10605;52.968;8.844;2023-03-23T08:34:30;11.30;99.90
20891;DHT22;10605;52.968;8.844;2023-03-23T08:36:56;11.20;99.90
20891;DHT22;10605;52.968;8.844;2023-03-23T08:39:22;11.20;99.90
20891;DHT22;10605;52.968;8.844;2023-03-23T08:41:49;11.30;99.90
20891;DHT22;10605;52.968;8.844;2023-03-23T08:44:15;11.50;99.90
20891;DHT22;10605;52.968;8.844;2023-03-23T08:46:40;11.80;99.90
20891;DHT22;10605;52.968;8.844;2023-03-23T08:49:07;12.50;99.90
20891;DHT22;10605;52.968;8.844;2023-03-23T08:51:33;12.80;99.90
20891;DHT22;10605;52.968;8.844;2023-03-23T08:53:59;13.10;99.90
20891;DHT22;10605;52.968;8.844;2023-03-23T08:56:25;13.40;99.90
20891;DHT22;10605;52.968;8.844;2023-03-23T08:58:51;13.60;99.90
20891;DHT22;10605;52.968;8.844;2023-03-23T09:01:17;13.40;99.90
20891;DHT22;10605;52.968;8.844;2023-03-23T09:03:43;13.50;99.90
20891;DHT22;10605;52.968;8.844;2023-03-23T09:06:09;13.60;99.90
20891;DHT22;10605;52.968;8.844;2023-03-23T09:08:38;13.80;99.90
20891;DHT22;10605;52.968;8.844;2023-03-23T09:11:07;14.10;99.90
20891;DHT22;10605;52.968;8.844;2023-03-23T09:13:34;14.60;99.90
20891;DHT22;10605;52.968;8.844;2023-03-23T09:16:00;14.70;99.90
20891;DHT22;10605;52.968;8.844;2023-03-23T09:18:26;14.30;99.90
20891;DHT22;10605;52.968;8.844;2023-03-23T09:20:53;13.90;99.90
20891;DHT22;10605;52.968;8.844;2023-03-23T09:23:19;13.40;99.90
20891;DHT22;10605;52.968;8.844;2023-03-23T09:25:46;13.00;99.90
20891;DHT22;10605;52.968;8.844;2023-03-23T09:28:12;12.50;99.90
20891;DHT22;10605;52.968;8.844;2023-03-23T09:30:39;12.30;99.90
20891;DHT22;10605;52.968;8.844;2023-03-23T09:33:07;12.00;99.90
20891;DHT22;10605;52.968;8.844;2023-03-23T09:35:34;12.00;99.90
20891;DHT22;10605;52.968;8.844;2023-03-23T09:38:01;12.20;99.90
20891;DHT22;10605;52.968;8.844;2023-03-23T09:48:43;12.30;99.90
20891;DHT22;10605;52.968;8.844;2023-03-23T09:53:47;12.50;99.90
20891;DHT22;10605;52.968;8.844;2023-03-23T09:56:15;12.50;99.90
20891;DHT22;10605;52.968;8.844;2023-03-23T10:01:52;13.10;99.90
20891;DHT22;10605;52.968;8.844;2023-03-23T10:04:55;14.00;99.90
20891;DHT22;10605;52.968;8.844;2023-03-23T10:07:26;14.50;99.90
20891;DHT22;10605;52.968;8.844;2023-03-23T10:09:55;14.50;99.90
20891;DHT22;10605;52.968;8.844;2023-03-23T10:12:42;14.20;99.90
20891;DHT22;10605;52.968;8.844;2023-03-23T10:15:29;13.70;99.90
20891;DHT22;10605;52.968;8.844;2023-03-23T10:20:59;13.20;99.90
20891;DHT22;10605;52.968;8.844;2023-03-23T10:24:01;13.20;99.90
20891;DHT22;10605;52.968;8.844;2023-03-23T10:29:17;13.40;99.90
20891;DHT22;10605;52.968;8.844;2023-03-23T10:31:56;13.30;99.90
20891;DHT22;10605;52.968;8.844;2023-03-23T10:35:03;13.50;99.90
20891;DHT22;10605;52.968;8.844;2023-03-23T10:37:40;13.50;99.90
20891;DHT22;10605;52.968;8.844;2023-03-23T10:40:18;13.30;99.90
20891;DHT22;10605;52.968;8.844;2023-03-23T10:42:45;13.40;99.90
20891;DHT22;10605;52.968;8.844;2023-03-23T10:45:28;13.60;99.90
20891;DHT22;10605;52.968;8.844;2023-03-23T10:48:25;14.80;99.90
20891;DHT22;10605;52.968;8.844;2023-03-23T10:50:55;15.10;99.90
20891;DHT22;10605;52.968;8.844;2023-03-23T10:53:32;14.80;99.90
20891;DHT22;10605;52.968;8.844;2023-03-23T10:55:59;14.40;99.90
20891;DHT22;10605;52.968;8.844;2023-03-23T10:58:30;14.30;99.90
20891;DHT22;10605;52.968;8.844;2023-03-23T11:00:58;14.10;99.90
20891;DHT22;10605;52.968;8.844;2023-03-23T11:03:48;13.80;99.90
20891;DHT22;10605;52.968;8.844;2023-03-23T11:06:24;14.00;99.90
20891;DHT22;10605;52.968;8.844;2023-03-23T11:08:58;14.60;99.90
20891;DHT22;10605;52.968;8.844;2023-03-23T11:11:30;15.00;99.90
20891;DHT22;10605;52.968;8.844;2023-03-23T11:14:13;15.10;99.90
20891;DHT22;10605;52.968;8.844;2023-03-23T11:16:44;15.20;99.90
20891;DHT22;10605;52.968;8.844;2023-03-23T11:19:15;15.20;99.90
20891;DHT22;10605;52.968;8.844;2023-03-23T11:21:50;15.00;99.90
20891;DHT22;10605;52.968;8.844;2023-03-23T11:24:17;15.10;99.90
20891;DHT22;10605;52.968;8.844;2023-03-23T11:26:44;15.10;99.90
20891;DHT22;10605;52.968;8.844;2023-03-23T11:29:21;15.00;99.90
20891;DHT22;10605;52.968;8.844;2023-03-23T11:31:50;14.50;99.90
20891;DHT22;10605;52.968;8.844;2023-03-23T11:37:05;14.70;99.90
20891;DHT22;10605;52.968;8.844;2023-03-23T11:42:24;15.40;99.90
20891;DHT22;10605;52.968;8.844;2023-03-23T11:50:26;16.30;99.90
20891;DHT22;10605;52.968;8.844;2023-03-23T11:58:10;18.70;99.90
20891;DHT22;10605;52.968;8.844;2023-03-23T12:00:43;19.30;99.90
20891;DHT22;10605;52.968;8.844;2023-03-23T12:03:51;17.80;99.90
20891;DHT22;10605;52.968;8.844;2023-03-23T12:09:18;20.90;99.90
20891;DHT22;10605;52.968;8.844;2023-03-23T12:23:16;22.80;99.90
20891;DHT22;10605;52.968;8.844;2023-03-23T12:29:03;21.60;99.90
20891;DHT22;10605;52.968;8.844;2023-03-23T12:39:40;17.10;99.90
20891;DHT22;10605;52.968;8.844;2023-03-23T12:48:10;17.10;99.90
20891;DHT22;10605;52.968;8.844;2023-03-23T12:53:41;17.80;99.90
20891;DHT22;10605;52.968;8.844;2023-03-23T12:56:26;18.20;99.90
20891;DHT22;10605;52.968;8.844;2023-03-23T13:02:13;19.50;99.90
20891;DHT22;10605;52.968;8.844;2023-03-23T13:04:44;18.80;99.90
20891;DHT22;10605;52.968;8.844;2023-03-23T13:07:15;17.70;99.90
20891;DHT22;10605;52.968;8.844;2023-03-23T13:10:02;17.30;99.90
20891;DHT22;10605;52.968;8.844;2023-03-23T13:12:30;17.00;99.90
20891;DHT22;10605;52.968;8.844;2023-03-23T13:18:08;16.90;99.90
20891;DHT22;10605;52.968;8.844;2023-03-23T13:23:42;16.80;99.90
20891;DHT22;10605;52.968;8.844;2023-03-23T13:26:13;17.10;99.90
20891;DHT22;10605;52.968;8.844;2023-03-23T13:31:16;17.00;99.90
20891;DHT22;10605;52.968;8.844;2023-03-23T13:33:58;17.00;99.90
20891;DHT22;10605;52.968;8.844;2023-03-23T13:36:31;16.60;99.90
20891;DHT22;10605;52.968;8.844;2023-03-23T13:38:59;16.70;99.90
20891;DHT22;10605;52.968;8.844;2023-03-23T13:41:25;16.80;99.90
20891;DHT22;10605;52.968;8.844;2023-03-23T13:43:54;16.70;99.90
20891;DHT22;10605;52.968;8.844;2023-03-23T13:46:30;16.60;99.90
20891;DHT22;10605;52.968;8.844;2023-03-23T13:54:30;16.40;99.90
20891;DHT22;10605;52.968;8.844;2023-03-23T13:57:19;16.60;99.90
20891;DHT22;10605;52.968;8.844;2023-03-23T13:59:48;17.10;99.90
20891;DHT22;10605;52.968;8.844;2023-03-23T14:02:39;17.50;99.90
20891;DHT22;10605;52.968;8.844;2023-03-23T14:07:59;17.20;99.90
20891;DHT22;10605;52.968;8.844;2023-03-23T14:10:37;16.80;99.90
20891;DHT22;10605;52.968;8.844;2023-03-23T14:13:06;16.60;99.90
20891;DHT22;10605;52.968;8.844;2023-03-23T14:18:39;16.30;99.90
20891;DHT22;10605;52.968;8.844;2023-03-23T14:21:13;16.50;99.90
20891;DHT22;10605;52.968;8.844;2023-03-23T14:23:39;16.90;99.90
20891;DHT22;10605;52.968;8.844;2023-03-23T14:26:11;16.70;99.90
20891;DHT22;10605;52.968;8.844;2023-03-23T14:28:44;16.70;99.90
20891;DHT22;10605;52.968;8.844;2023-03-23T14:31:30;16.80;99.90
20891;DHT22;10605;52.968;8.844;2023-03-23T14:34:00;16.70;99.90
20891;DHT22;10605;52.968;8.844;2023-03-23T14:36:28;16.90;99.90
20891;DHT22;10605;52.968;8.844;2023-03-23T14:41:30;16.60;99.90
20891;DHT22;10605;52.968;8.844;2023-03-23T14:43:59;16.40;99.90
20891;DHT22;10605;52.968;8.844;2023-03-23T14:46:25;16.40;99.90
20891;DHT22;10605;52.968;8.844;2023-03-23T14:48:51;16.60;99.90
20891;DHT22;10605;52.968;8.844;2023-03-23T14:51:19;16.30;99.90
20891;DHT22;10605;52.968;8.844;2023-03-23T14:53:46;16.50;99.90
20891;DHT22;10605;52.968;8.844;2023-03-23T14:56:19;16.50;99.90
20891;DHT22;10605;52.968;8.844;2023-03-23T14:58:49;16.20;99.90
20891;DHT22;10605;52.968;8.844;2023-03-23T15:01:26;16.30;99.90
20891;DHT22;10605;52.968;8.844;2023-03-23T15:04:00;16.50;99.90
20891;DHT22;10605;52.968;8.844;2023-03-23T15:06:28;16.30;99.90
20891;DHT22;10605;52.968;8.844;2023-03-23T15:08:56;16.20;99.90
20891;DHT22;10605;52.968;8.844;2023-03-23T15:11:35;16.20;99.90
20891;DHT22;10605;52.968;8.844;2023-03-23T15:14:22;16.00;99.90
20891;DHT22;10605;52.968;8.844;2023-03-23T15:16:51;15.80;99.90
20891;DHT22;10605;52.968;8.844;2023-03-23T15:19:32;15.70;99.90
20891;DHT22;10605;52.968;8.844;2023-03-23T15:22:28;15.70;99.90
20891;DHT22;10605;52.968;8.844;2023-03-23T15:25:01;15.50;99.90
20891;DHT22;10605;52.968;8.844;2023-03-23T15:27:34;15.50;99.90
20891;DHT22;10605;52.968;8.844;2023-03-23T15:30:18;15.40;99.90
20891;DHT22;10605;52.968;8.844;2023-03-23T15:33:11;15.40;99.90
20891;DHT22;10605;52.968;8.844;2023-03-23T15:35:41;15.40;99.90
20891;DHT22;10605;52.968;8.844;2023-03-23T15:40:53;15.60;99.90
20891;DHT22;10605;52.968;8.844;2023-03-23T15:46:21;15.40;99.90
20891;DHT22;10605;52.968;8.844;2023-03-23T15:48:51;15.50;99.90
20891;DHT22;10605;52.968;8.844;2023-03-23T15:51:21;15.40;99.90
20891;DHT22;10605;52.968;8.844;2023-03-23T15:53:48;15.30;99.90
20891;DHT22;10605;52.968;8.844;2023-03-23T15:56:15;15.30;99.90
20891;DHT22;10605;52.968;8.844;2023-03-23T15:58:41;15.30;99.90
20891;DHT22;10605;52.968;8.844;2023-03-23T16:01:19;15.00;99.90
20891;DHT22;10605;52.968;8.844;2023-03-23T16:06:22;14.80;99.90
20891;DHT22;10605;52.968;8.844;2023-03-23T16:08:48;15.00;99.90
20891;DHT22;10605;52.968;8.844;2023-03-23T16:11:16;15.10;99.90
20891;DHT22;10605;52.968;8.844;2023-03-23T16:13:42;14.90;99.90
20891;DHT22;10605;52.968;8.844;2023-03-23T16:16:17;14.80;99.90
20891;DHT22;10605;52.968;8.844;2023-03-23T16:18:43;14.50;99.90
20891;DHT22;10605;52.968;8.844;2023-03-23T16:21:09;14.30;99.90
20891;DHT22;10605;52.968;8.844;2023-03-23T16:23:35;14.20;99.90
20891;DHT22;10605;52.968;8.844;2023-03-23T16:26:01;14.00;99.90
20891;DHT22;10605;52.968;8.844;2023-03-23T16:28:26;14.00;99.90
20891;DHT22;10605;52.968;8.844;2023-03-23T16:30:52;13.90;99.90
20891;DHT22;10605;52.968;8.844;2023-03-23T16:33:18;13.80;99.90
20891;DHT22;10605;52.968;8.844;2023-03-23T16:35:44;13.70;99.90
20891;DHT22;10605;52.968;8.844;2023-03-23T16:38:12;13.50;99.90
20891;DHT22;10605;52.968;8.844;2023-03-23T16:40:39;13.50;99.90
20891;DHT22;10605;52.968;8.844;2023-03-23T16:43:05;13.60;99.90
20891;DHT22;10605;52.968;8.844;2023-03-23T16:45:31;13.70;99.90
20891;DHT22;10605;52.968;8.844;2023-03-23T16:47:57;13.90;99.90
20891;DHT22;10605;52.968;8.844;2023-03-23T16:50:27;14.00;99.90
20891;DHT22;10605;52.968;8.844;2023-03-23T16:52:53;14.10;99.90
20891;DHT22;10605;52.968;8.844;2023-03-23T16:55:19;13.90;99.90
20891;DHT22;10605;52.968;8.844;2023-03-23T16:57:45;13.80;99.90
20891;DHT22;10605;52.968;8.844;2023-03-23T17:00:13;13.60;99.90
20891;DHT22;10605;52.968;8.844;2023-03-23T17:02:42;13.50;99.90
20891;DHT22;10605;52.968;8.844;2023-03-23T17:05:09;13.30;99.90
20891;DHT22;10605;52.968;8.844;2023-03-23T17:07:39;13.20;99.90
20891;DHT22;10605;52.968;8.844;2023-03-23T17:10:07;13.10;99.90
20891;DHT22;10605;52.968;8.844;2023-03-23T17:12:33;13.00;99.90
20891;DHT22;10605;52.968;8.844;2023-03-23T17:14:59;13.00;99.90
20891;DHT22;10605;52.968;8.844;2023-03-23T17:17:27;12.90;99.90
20891;DHT22;10605;52.968;8.844;2023-03-23T17:19:52;12.80;99.90
20891;DHT22;10605;52.968;8.844;2023-03-23T17:22:18;12.80;99.90
20891;DHT22;10605;52.968;8.844;2023-03-23T17:24:44;12.80;99.90
20891;DHT22;10605;52.968;8.844;2023-03-23T17:27:13;12.70;99.90
20891;DHT22;10605;52.968;8.844;2023-03-23T17:29:39;12.60;99.90
20891;DHT22;10605;52.968;8.844;2023-03-23T17:32:04;12.60;99.90
20891;DHT22;10605;52.968;8.844;2023-03-23T17:34:30;12.50;99.90
20891;DHT22;10605;52.968;8.844;2023-03-23T17:36:56;12.50;99.90
20891;DHT22;10605;52.968;8.844;2023-03-23T17:39:22;12.40;99.90
20891;DHT22;10605;52.968;8.844;2023-03-23T17:41:47;12.50;99.90
20891;DHT22;10605;52.968;8.844;2023-03-23T17:44:13;12.40;99.90
20891;DHT22;10605;52.968;8.844;2023-03-23T17:46:39;12.40;99.90
20891;DHT22;10605;52.968;8.844;2023-03-23T17:49:05;12.40;99.90
20891;DHT22;10605;52.968;8.844;2023-03-23T17:51:31;12.40;99.90